sensor_id;sensor_type;location;lat;lon;timestamp;P1;P2;P0
73305;PMS5003;61530;51.158;0.880;2023-06-10T16:17:56;28;27;19
73305;PMS5003;61530;51.158;0.880;2023-06-10T16:18:56;26;26;20
73305;PMS5003;61530;51.158;0.880;2023-06-10T16:19:57;32;32;21
73305;PMS5003;61530;51.158;0.880;2023-06-10T16:20:58;32;31;20
73305;PMS5003;61530;51.158;0.880;2023-06-10T16:21:58;29;29;21
73305;PMS5003;61530;51.158;0.880;2023-06-10T16:22:59;33;29;22
73305;PMS5003;61530;51.158;0.880;2023-06-10T16:24:00;23;23;16
73305;PMS5003;61530;51.158;0.880;2023-06-10T16:25:00;26;26;18
73305;PMS5003;61530;51.158;0.880;2023-06-10T16:26:01;29;25;18
73305;PMS5003;61530;51.158;0.880;2023-06-10T16:27:02;26;26;18
73305;PMS5003;61530;51.158;0.880;2023-06-10T16:28:03;24;23;16
73305;PMS5003;61530;51.158;0.880;2023-06-10T16:29:03;29;25;17
73305;PMS5003;61530;51.158;0.880;2023-06-10T16:30:04;25;25;17
73305;PMS5003;61530;51.158;0.880;2023-06-10T16:31:06;25;23;17
73305;PMS5003;61530;51.158;0.880;2023-06-10T16:32:07;32;27;19
73305;PMS5003;61530;51.158;0.880;2023-06-10T16:33:07;23;23;17
73305;PMS5003;61530;51.158;0.880;2023-06-10T16:34:08;27;24;17
73305;PMS5003;61530;51.158;0.880;2023-06-10T16:35:08;28;27;18
73305;PMS5003;61530;51.158;0.880;2023-06-10T16:36:09;26;24;18
73305;PMS5003;61530;51.158;0.880;2023-06-10T16:37:10;28;26;17
73305;PMS5003;61530;51.158;0.880;2023-06-10T16:38:10;25;24;18
73305;PMS5003;61530;51.158;0.880;2023-06-10T16:39:11;27;27;18
73305;PMS5003;61530;51.158;0.880;2023-06-10T16:40:12;29;27;20
73305;PMS5003;61530;51.158;0.880;2023-06-10T16:41:12;30;30;19
73305;PMS5003;61530;51.158;0.880;2023-06-10T16:42:13;31;31;20
73305;PMS5003;61530;51.158;0.880;2023-06-10T16:43:14;25;24;16
73305;PMS5003;61530;51.158;0.880;2023-06-10T16:44:14;25;24;19
73305;PMS5003;61530;51.158;0.880;2023-06-10T16:45:15;25;24;18
73305;PMS5003;61530;51.158;0.880;2023-06-10T16:46:16;26;26;20
73305;PMS5003;61530;51.158;0.880;2023-06-10T16:47:16;28;28;17
73305;PMS5003;61530;51.158;0.880;2023-06-10T16:48:17;34;32;19
73305;PMS5003;61530;51.158;0.880;2023-06-10T16:49:18;30;29;18
73305;PMS5003;61530;51.158;0.880;2023-06-10T16:50:18;27;26;20
73305;PMS5003;61530;51.158;0.880;2023-06-10T16:51:19;27;27;16
73305;PMS5003;61530;51.158;0.880;2023-06-10T16:52:19;29;28;19
73305;PMS5003;61530;51.158;0.880;2023-06-10T16:53:20;27;25;18
73305;PMS5003;61530;51.158;0.880;2023-06-10T16:54:21;35;31;19
73305;PMS5003;61530;51.158;0.880;2023-06-10T16:55:21;23;23;14
73305;PMS5003;61530;51.158;0.880;2023-06-10T16:56:22;30;29;18
73305;PMS5003;61530;51.158;0.880;2023-06-10T16:57:23;25;25;16
73305;PMS5003;61530;51.158;0.880;2023-06-10T16:58:23;27;27;18
73305;PMS5003;61530;51.158;0.880;2023-06-10T16:59:24;27;26;20
73305;PMS5003;61530;51.158;0.880;2023-06-10T17:00:25;26;25;17
73305;PMS5003;61530;51.158;0.880;2023-06-10T17:01:25;29;28;19
73305;PMS5003;61530;51.158;0.880;2023-06-10T17:02:26;27;24;17
73305;PMS5003;61530;51.158;0.880;2023-06-10T17:03:27;30;25;16
73305;PMS5003;61530;51.158;0.880;2023-06-10T17:04:28;33;31;21
73305;PMS5003;61530;51.158;0.880;2023-06-10T17:05:29;28;27;19
73305;PMS5003;61530;51.158;0.880;2023-06-10T17:06:30;27;26;19
73305;PMS5003;61530;51.158;0.880;2023-06-10T17:07:30;28;27;18
73305;PMS5003;61530;51.158;0.880;2023-06-10T17:08:31;29;28;17
73305;PMS5003;61530;51.158;0.880;2023-06-10T17:09:32;30;30;20
73305;PMS5003;61530;51.158;0.880;2023-06-10T17:10:32;29;26;19
73305;PMS5003;61530;51.158;0.880;2023-06-10T17:11:33;28;28;19
73305;PMS5003;61530;51.158;0.880;2023-06-10T17:12:34;27;26;17
73305;PMS5003;61530;51.158;0.880;2023-06-10T17:13:34;27;27;17
73305;PMS5003;61530;51.158;0.880;2023-06-10T17:14:35;31;31;24
73305;PMS5003;61530;51.158;0.880;2023-06-10T17:15:36;34;25;17
73305;PMS5003;61530;51.158;0.880;2023-06-10T17:16:37;25;25;16
73305;PMS5003;61530;51.158;0.880;2023-06-10T17:17:38;29;29;18
73305;PMS5003;61530;51.158;0.880;2023-06-10T17:18:39;26;26;19
73305;PMS5003;61530;51.158;0.880;2023-06-10T17:19:39;30;27;19
73305;PMS5003;61530;51.158;0.880;2023-06-10T17:20:40;25;25;18
73305;PMS5003;61530;51.158;0.880;2023-06-10T17:21:41;29;28;18
73305;PMS5003;61530;51.158;0.880;2023-06-10T17:22:43;31;29;19
73305;PMS5003;61530;51.158;0.880;2023-06-10T17:23:43;32;32;20
73305;PMS5003;61530;51.158;0.880;2023-06-10T17:24:44;23;23;18
73305;PMS5003;61530;51.158;0.880;2023-06-10T17:25:45;26;25;18
73305;PMS5003;61530;51.158;0.880;2023-06-10T17:26:45;30;29;18
73305;PMS5003;61530;51.158;0.880;2023-06-10T17:27:46;23;23;17
73305;PMS5003;61530;51.158;0.880;2023-06-10T17:28:47;35;35;21
73305;PMS5003;61530;51.158;0.880;2023-06-10T17:29:47;30;29;20
73305;PMS5003;61530;51.158;0.880;2023-06-10T17:30:48;32;29;18
73305;PMS5003;61530;51.158;0.880;2023-06-10T17:31:49;26;26;19
73305;PMS5003;61530;51.158;0.880;2023-06-10T17:32:49;24;24;17
73305;PMS5003;61530;51.158;0.880;2023-06-10T17:33:50;30;26;18
73305;PMS5003;61530;51.158;0.880;2023-06-10T17:34:51;25;25;19
73305;PMS5003;61530;51.158;0.880;2023-06-10T17:35:51;22;22;17
73305;PMS5003;61530;51.158;0.880;2023-06-10T17:36:52;28;26;17
73305;PMS5003;61530;51.158;0.880;2023-06-10T17:37:53;28;25;18
73305;PMS5003;61530;51.158;0.880;2023-06-10T17:38:53;24;23;17
73305;PMS5003;61530;51.158;0.880;2023-06-10T17:39:55;25;24;15
73305;PMS5003;61530;51.158;0.880;2023-06-10T17:40:56;20;20;14
73305;PMS5003;61530;51.158;0.880;2023-06-10T17:41:56;25;25;18
73305;PMS5003;61530;51.158;0.880;2023-06-10T17:42:57;29;28;17
73305;PMS5003;61530;51.158;0.880;2023-06-10T17:43:58;28;27;17
73305;PMS5003;61530;51.158;0.880;2023-06-10T17:44:58;27;25;17
73305;PMS5003;61530;51.158;0.880;2023-06-10T17:45:59;29;28;17
73305;PMS5003;61530;51.158;0.880;2023-06-10T17:47:00;23;23;16
73305;PMS5003;61530;51.158;0.880;2023-06-10T17:48:00;24;24;17
73305;PMS5003;61530;51.158;0.880;2023-06-10T17:49:01;26;26;17
73305;PMS5003;61530;51.158;0.880;2023-06-10T17:50:02;28;27;18
73305;PMS5003;61530;51.158;0.880;2023-06-10T17:51:02;21;21;16
73305;PMS5003;61530;51.158;0.880;2023-06-10T17:52:03;26;25;17
73305;PMS5003;61530;51.158;0.880;2023-06-10T17:53:04;25;23;16
73305;PMS5003;61530;51.158;0.880;2023-06-10T17:54:04;26;24;18
73305;PMS5003;61530;51.158;0.880;2023-06-10T17:55:05;26;23;19
73305;PMS5003;61530;51.158;0.880;2023-06-10T17:56:06;26;25;18
73305;PMS5003;61530;51.158;0.880;2023-06-10T17:57:06;27;24;16
73305;PMS5003;61530;51.158;0.880;2023-06-10T17:58:07;25;23;16
73305;PMS5003;61530;51.158;0.880;2023-06-10T17:59:08;23;23;15
73305;PMS5003;61530;51.158;0.880;2023-06-10T18:00:09;27;27;17
73305;PMS5003;61530;51.158;0.880;2023-06-10T18:01:09;27;23;17
73305;PMS5003;61530;51.158;0.880;2023-06-10T18:02:10;24;23;20
73305;PMS5003;61530;51.158;0.880;2023-06-10T18:03:10;26;24;18
73305;PMS5003;61530;51.158;0.880;2023-06-10T18:04:11;25;23;16
73305;PMS5003;61530;51.158;0.880;2023-06-10T18:05:12;19;19;13
73305;PMS5003;61530;51.158;0.880;2023-06-10T18:06:12;26;25;18
73305;PMS5003;61530;51.158;0.880;2023-06-10T18:07:13;28;26;16
73305;PMS5003;61530;51.158;0.880;2023-06-10T18:08:14;30;27;16
73305;PMS5003;61530;51.158;0.880;2023-06-10T18:09:14;24;21;14
73305;PMS5003;61530;51.158;0.880;2023-06-10T18:10:15;21;21;15
73305;PMS5003;61530;51.158;0.880;2023-06-10T18:11:16;26;26;15
73305;PMS5003;61530;51.158;0.880;2023-06-10T18:12:16;27;23;15
73305;PMS5003;61530;51.158;0.880;2023-06-10T18:13:17;26;23;16
73305;PMS5003;61530;51.158;0.880;2023-06-10T18:14:18;21;20;15
73305;PMS5003;61530;51.158;0.880;2023-06-10T18:15:21;28;28;16
73305;PMS5003;61530;51.158;0.880;2023-06-10T18:16:21;23;22;17
73305;PMS5003;61530;51.158;0.880;2023-06-10T18:17:22;24;24;17
73305;PMS5003;61530;51.158;0.880;2023-06-10T18:18:23;24;22;16
73305;PMS5003;61530;51.158;0.880;2023-06-10T18:19:24;26;24;17
73305;PMS5003;61530;51.158;0.880;2023-06-10T18:20:24;24;24;17
73305;PMS5003;61530;51.158;0.880;2023-06-10T18:21:25;21;21;14
73305;PMS5003;61530;51.158;0.880;2023-06-10T18:22:25;27;25;16
73305;PMS5003;61530;51.158;0.880;2023-06-10T18:23:26;25;22;16
73305;PMS5003;61530;51.158;0.880;2023-06-10T18:24:27;24;20;15
73305;PMS5003;61530;51.158;0.880;2023-06-10T18:25:28;25;24;17
73305;PMS5003;61530;51.158;0.880;2023-06-10T18:26:28;25;24;15
73305;PMS5003;61530;51.158;0.880;2023-06-10T18:27:29;24;23;17
73305;PMS5003;61530;51.158;0.880;2023-06-10T18:28:30;23;23;16
73305;PMS5003;61530;51.158;0.880;2023-06-10T18:29:31;23;22;16
73305;PMS5003;61530;51.158;0.880;2023-06-10T18:30:31;24;24;16
73305;PMS5003;61530;51.158;0.880;2023-06-10T18:31:32;28;27;16
73305;PMS5003;61530;51.158;0.880;2023-06-10T18:32:33;20;20;15
73305;PMS5003;61530;51.158;0.880;2023-06-10T18:33:33;25;24;17
73305;PMS5003;61530;51.158;0.880;2023-06-10T18:34:34;21;20;15
73305;PMS5003;61530;51.158;0.880;2023-06-10T18:35:35;24;21;16
73305;PMS5003;61530;51.158;0.880;2023-06-10T18:36:35;23;21;16
73305;PMS5003;61530;51.158;0.880;2023-06-10T18:37:36;21;20;15
73305;PMS5003;61530;51.158;0.880;2023-06-10T18:38:37;24;22;15
73305;PMS5003;61530;51.158;0.880;2023-06-10T18:39:37;23;23;15
73305;PMS5003;61530;51.158;0.880;2023-06-10T18:40:38;20;20;14
73305;PMS5003;61530;51.158;0.880;2023-06-10T18:41:39;19;19;14
73305;PMS5003;61530;51.158;0.880;2023-06-10T18:42:39;21;21;15
73305;PMS5003;61530;51.158;0.880;2023-06-10T18:43:40;21;21;16
73305;PMS5003;61530;51.158;0.880;2023-06-10T18:44:41;20;20;15
73305;PMS5003;61530;51.158;0.880;2023-06-10T18:45:41;26;23;15
73305;PMS5003;61530;51.158;0.880;2023-06-10T18:46:42;21;21;15
73305;PMS5003;61530;51.158;0.880;2023-06-10T18:47:43;25;20;15
73305;PMS5003;61530;51.158;0.880;2023-06-10T18:48:43;25;22;15
73305;PMS5003;61530;51.158;0.880;2023-06-10T18:49:44;18;18;14
73305;PMS5003;61530;51.158;0.880;2023-06-10T18:50:45;23;22;15
73305;PMS5003;61530;51.158;0.880;2023-06-10T18:51:46;23;23;16
73305;PMS5003;61530;51.158;0.880;2023-06-10T18:52:46;24;20;16
73305;PMS5003;61530;51.158;0.880;2023-06-10T18:53:47;20;20;15
73305;PMS5003;61530;51.158;0.880;2023-06-10T18:54:47;27;22;16
73305;PMS5003;61530;51.158;0.880;2023-06-10T18:55:48;22;22;13
73305;PMS5003;61530;51.158;0.880;2023-06-10T18:56:49;21;21;14
73305;PMS5003;61530;51.158;0.880;2023-06-10T18:57:49;22;20;14
73305;PMS5003;61530;51.158;0.880;2023-06-10T18:58:50;22;22;16
73305;PMS5003;61530;51.158;0.880;2023-06-10T18:59:51;29;26;14
73305;PMS5003;61530;51.158;0.880;2023-06-10T19:00:51;20;20;12
73305;PMS5003;61530;51.158;0.880;2023-06-10T19:01:52;26;24;15
73305;PMS5003;61530;51.158;0.880;2023-06-10T19:02:53;20;20;14
73305;PMS5003;61530;51.158;0.880;2023-06-10T19:03:53;24;24;14
73305;PMS5003;61530;51.158;0.880;2023-06-10T19:04:54;22;19;14
73305;PMS5003;61530;51.158;0.880;2023-06-10T19:05:55;25;24;16
73305;PMS5003;61530;51.158;0.880;2023-06-10T19:06:55;25;24;15
73305;PMS5003;61530;51.158;0.880;2023-06-10T19:07:56;20;18;13
73305;PMS5003;61530;51.158;0.880;2023-06-10T19:08:57;28;26;16
73305;PMS5003;61530;51.158;0.880;2023-06-10T19:09:57;27;25;14
73305;PMS5003;61530;51.158;0.880;2023-06-10T19:10:58;26;24;17
73305;PMS5003;61530;51.158;0.880;2023-06-10T19:11:59;22;22;15
73305;PMS5003;61530;51.158;0.880;2023-06-10T19:13:02;24;21;17
73305;PMS5003;61530;51.158;0.880;2023-06-10T19:14:02;18;16;12
73305;PMS5003;61530;51.158;0.880;2023-06-10T19:15:03;22;20;14
73305;PMS5003;61530;51.158;0.880;2023-06-10T19:16:04;23;23;16
73305;PMS5003;61530;51.158;0.880;2023-06-10T19:17:04;22;20;14
73305;PMS5003;61530;51.158;0.880;2023-06-10T19:18:07;22;20;16
73305;PMS5003;61530;51.158;0.880;2023-06-10T19:19:06;27;26;14
73305;PMS5003;61530;51.158;0.880;2023-06-10T19:20:08;19;19;14
73305;PMS5003;61530;51.158;0.880;2023-06-10T19:21:07;24;22;16
73305;PMS5003;61530;51.158;0.880;2023-06-10T19:22:08;25;24;14
73305;PMS5003;61530;51.158;0.880;2023-06-10T19:23:08;29;26;15
73305;PMS5003;61530;51.158;0.880;2023-06-10T19:24:09;21;19;14
73305;PMS5003;61530;51.158;0.880;2023-06-10T19:25:10;17;17;13
73305;PMS5003;61530;51.158;0.880;2023-06-10T19:26:10;22;22;14
73305;PMS5003;61530;51.158;0.880;2023-06-10T19:27:11;23;23;18
73305;PMS5003;61530;51.158;0.880;2023-06-10T19:28:12;26;24;16
73305;PMS5003;61530;51.158;0.880;2023-06-10T19:29:12;28;28;17
73305;PMS5003;61530;51.158;0.880;2023-06-10T19:30:13;25;25;15
73305;PMS5003;61530;51.158;0.880;2023-06-10T19:31:14;25;25;17
73305;PMS5003;61530;51.158;0.880;2023-06-10T19:32:14;22;22;16
73305;PMS5003;61530;51.158;0.880;2023-06-10T19:33:15;25;25;15
73305;PMS5003;61530;51.158;0.880;2023-06-10T19:34:16;25;23;17
73305;PMS5003;61530;51.158;0.880;2023-06-10T19:35:17;28;27;16
73305;PMS5003;61530;51.158;0.880;2023-06-10T19:36:19;21;21;15
73305;PMS5003;61530;51.158;0.880;2023-06-10T19:37:19;21;21;17
73305;PMS5003;61530;51.158;0.880;2023-06-10T19:38:20;26;23;18
73305;PMS5003;61530;51.158;0.880;2023-06-10T19:39:21;25;25;16
73305;PMS5003;61530;51.158;0.880;2023-06-10T19:40:21;26;25;19
73305;PMS5003;61530;51.158;0.880;2023-06-10T19:41:22;23;23;15
73305;PMS5003;61530;51.158;0.880;2023-06-10T19:42:23;21;21;17
73305;PMS5003;61530;51.158;0.880;2023-06-10T19:43:23;24;23;16
73305;PMS5003;61530;51.158;0.880;2023-06-10T19:44:24;26;24;18
73305;PMS5003;61530;51.158;0.880;2023-06-10T19:45:25;25;23;15
73305;PMS5003;61530;51.158;0.880;2023-06-10T19:46:26;22;22;15
73305;PMS5003;61530;51.158;0.880;2023-06-10T19:47:26;19;19;12
73305;PMS5003;61530;51.158;0.880;2023-06-10T19:48:27;18;18;12
73305;PMS5003;61530;51.158;0.880;2023-06-10T19:49:28;26;25;18
73305;PMS5003;61530;51.158;0.880;2023-06-10T19:50:29;20;20;14
73305;PMS5003;61530;51.158;0.880;2023-06-10T19:51:29;21;20;15
73305;PMS5003;61530;51.158;0.880;2023-06-10T19:52:30;26;26;16
73305;PMS5003;61530;51.158;0.880;2023-06-10T19:53:31;25;25;15
73305;PMS5003;61530;51.158;0.880;2023-06-10T19:54:31;24;20;14
73305;PMS5003;61530;51.158;0.880;2023-06-10T19:55:32;25;25;15
73305;PMS5003;61530;51.158;0.880;2023-06-10T19:56:33;20;20;14
73305;PMS5003;61530;51.158;0.880;2023-06-10T19:57:33;23;22;16
73305;PMS5003;61530;51.158;0.880;2023-06-10T19:58:34;26;26;16
73305;PMS5003;61530;51.158;0.880;2023-06-10T19:59:35;21;19;14
73305;PMS5003;61530;51.158;0.880;2023-06-10T20:00:38;22;22;15
73305;PMS5003;61530;51.158;0.880;2023-06-10T20:01:38;28;24;16
73305;PMS5003;61530;51.158;0.880;2023-06-10T20:02:39;23;23;17
73305;PMS5003;61530;51.158;0.880;2023-06-10T20:03:40;20;20;14
73305;PMS5003;61530;51.158;0.880;2023-06-10T20:04:40;25;25;16
73305;PMS5003;61530;51.158;0.880;2023-06-10T20:05:41;22;22;15
73305;PMS5003;61530;51.158;0.880;2023-06-10T20:06:42;23;22;15
73305;PMS5003;61530;51.158;0.880;2023-06-10T20:07:42;22;22;16
73305;PMS5003;61530;51.158;0.880;2023-06-10T20:08:43;23;23;16
73305;PMS5003;61530;51.158;0.880;2023-06-10T20:09:44;22;21;15
73305;PMS5003;61530;51.158;0.880;2023-06-10T20:10:44;28;22;15
73305;PMS5003;61530;51.158;0.880;2023-06-10T20:11:45;21;20;14
73305;PMS5003;61530;51.158;0.880;2023-06-10T20:12:46;20;18;13
73305;PMS5003;61530;51.158;0.880;2023-06-10T20:13:46;27;24;15
73305;PMS5003;61530;51.158;0.880;2023-06-10T20:14:47;22;21;15
73305;PMS5003;61530;51.158;0.880;2023-06-10T20:15:48;21;21;14
73305;PMS5003;61530;51.158;0.880;2023-06-10T20:16:48;25;22;15
73305;PMS5003;61530;51.158;0.880;2023-06-10T20:17:49;19;19;15
73305;PMS5003;61530;51.158;0.880;2023-06-10T20:18:50;27;27;16
73305;PMS5003;61530;51.158;0.880;2023-06-10T20:19:51;23;20;15
73305;PMS5003;61530;51.158;0.880;2023-06-10T20:20:52;19;19;13
73305;PMS5003;61530;51.158;0.880;2023-06-10T20:21:53;26;26;15
73305;PMS5003;61530;51.158;0.880;2023-06-10T20:22:53;27;26;15
73305;PMS5003;61530;51.158;0.880;2023-06-10T20:23:55;21;21;15
73305;PMS5003;61530;51.158;0.880;2023-06-10T20:24:55;26;24;14
73305;PMS5003;61530;51.158;0.880;2023-06-10T20:25:56;21;20;14
73305;PMS5003;61530;51.158;0.880;2023-06-10T20:26:57;19;19;13
73305;PMS5003;61530;51.158;0.880;2023-06-10T20:27:57;22;21;14
73305;PMS5003;61530;51.158;0.880;2023-06-10T20:28:58;28;23;16
73305;PMS5003;61530;51.158;0.880;2023-06-10T20:29:59;23;21;14
73305;PMS5003;61530;51.158;0.880;2023-06-10T20:31:00;23;22;15
73305;PMS5003;61530;51.158;0.880;2023-06-10T20:32:00;20;20;15
73305;PMS5003;61530;51.158;0.880;2023-06-10T20:33:01;19;19;14
73305;PMS5003;61530;51.158;0.880;2023-06-10T20:34:02;21;21;15
73305;PMS5003;61530;51.158;0.880;2023-06-10T20:35:05;24;22;16
73305;PMS5003;61530;51.158;0.880;2023-06-10T20:36:05;20;20;14
73305;PMS5003;61530;51.158;0.880;2023-06-10T20:37:06;20;18;14
73305;PMS5003;61530;51.158;0.880;2023-06-10T20:38:06;24;22;15
73305;PMS5003;61530;51.158;0.880;2023-06-10T20:39:07;23;22;15
73305;PMS5003;61530;51.158;0.880;2023-06-10T20:40:08;20;19;14
73305;PMS5003;61530;51.158;0.880;2023-06-10T20:41:08;24;23;15
73305;PMS5003;61530;51.158;0.880;2023-06-10T20:42:09;22;21;15
73305;PMS5003;61530;51.158;0.880;2023-06-10T20:43:10;24;23;14
73305;PMS5003;61530;51.158;0.880;2023-06-10T20:44:11;20;18;13
73305;PMS5003;61530;51.158;0.880;2023-06-10T20:45:12;20;19;14
73305;PMS5003;61530;51.158;0.880;2023-06-10T20:46:13;24;22;14
73305;PMS5003;61530;51.158;0.880;2023-06-10T20:47:13;17;17;13
73305;PMS5003;61530;51.158;0.880;2023-06-10T20:48:14;25;23;13
73305;PMS5003;61530;51.158;0.880;2023-06-10T20:49:15;22;20;12
73305;PMS5003;61530;51.158;0.880;2023-06-10T20:50:15;24;21;14
73305;PMS5003;61530;51.158;0.880;2023-06-10T20:51:16;21;20;14
73305;PMS5003;61530;51.158;0.880;2023-06-10T20:52:17;18;18;14
73305;PMS5003;61530;51.158;0.880;2023-06-10T20:53:17;19;18;14
73305;PMS5003;61530;51.158;0.880;2023-06-10T20:54:18;24;22;16
73305;PMS5003;61530;51.158;0.880;2023-06-10T20:55:19;23;21;15
73305;PMS5003;61530;51.158;0.880;2023-06-10T20:56:20;21;20;14
73305;PMS5003;61530;51.158;0.880;2023-06-10T20:57:20;22;21;16
73305;PMS5003;61530;51.158;0.880;2023-06-10T20:58:21;22;19;12
73305;PMS5003;61530;51.158;0.880;2023-06-10T20:59:22;20;19;14
73305;PMS5003;61530;51.158;0.880;2023-06-10T21:00:25;21;21;16
73305;PMS5003;61530;51.158;0.880;2023-06-10T21:01:25;18;16;13
73305;PMS5003;61530;51.158;0.880;2023-06-10T21:02:26;20;19;13
73305;PMS5003;61530;51.158;0.880;2023-06-10T21:03:27;23;17;12
73305;PMS5003;61530;51.158;0.880;2023-06-10T21:04:28;23;22;14
73305;PMS5003;61530;51.158;0.880;2023-06-10T21:05:28;24;20;14
73305;PMS5003;61530;51.158;0.880;2023-06-10T21:06:29;22;22;15
73305;PMS5003;61530;51.158;0.880;2023-06-10T21:07:30;17;17;13
73305;PMS5003;61530;51.158;0.880;2023-06-10T21:08:30;24;21;13
73305;PMS5003;61530;51.158;0.880;2023-06-10T21:09:31;23;22;12
73305;PMS5003;61530;51.158;0.880;2023-06-10T21:10:32;21;20;13
73305;PMS5003;61530;51.158;0.880;2023-06-10T21:11:33;21;21;15
73305;PMS5003;61530;51.158;0.880;2023-06-10T21:12:33;21;21;14
73305;PMS5003;61530;51.158;0.880;2023-06-10T21:13:34;19;19;13
73305;PMS5003;61530;51.158;0.880;2023-06-10T21:14:35;21;18;14
73305;PMS5003;61530;51.158;0.880;2023-06-10T21:15:35;22;21;13
73305;PMS5003;61530;51.158;0.880;2023-06-10T21:16:36;23;21;13
73305;PMS5003;61530;51.158;0.880;2023-06-10T21:17:37;25;21;14
73305;PMS5003;61530;51.158;0.880;2023-06-10T21:18:37;21;19;14
73305;PMS5003;61530;51.158;0.880;2023-06-10T21:19:38;26;20;14
73305;PMS5003;61530;51.158;0.880;2023-06-10T21:20:39;20;20;12
73305;PMS5003;61530;51.158;0.880;2023-06-10T21:21:40;26;24;14
73305;PMS5003;61530;51.158;0.880;2023-06-10T21:22:42;20;19;13
73305;PMS5003;61530;51.158;0.880;2023-06-10T21:23:42;20;19;13
73305;PMS5003;61530;51.158;0.880;2023-06-10T21:24:43;21;21;14
73305;PMS5003;61530;51.158;0.880;2023-06-10T21:25:44;21;21;13
73305;PMS5003;61530;51.158;0.880;2023-06-10T21:26:45;20;18;12
73305;PMS5003;61530;51.158;0.880;2023-06-10T21:27:45;21;19;12
73305;PMS5003;61530;51.158;0.880;2023-06-10T21:28:46;25;25;16
73305;PMS5003;61530;51.158;0.880;2023-06-10T21:29:47;22;22;14
73305;PMS5003;61530;51.158;0.880;2023-06-10T21:30:48;19;18;13
73305;PMS5003;61530;51.158;0.880;2023-06-10T21:31:48;25;25;14
73305;PMS5003;61530;51.158;0.880;2023-06-10T21:32:49;17;17;12
73305;PMS5003;61530;51.158;0.880;2023-06-10T21:33:50;17;17;11
73305;PMS5003;61530;51.158;0.880;2023-06-10T21:34:50;16;16;11
73305;PMS5003;61530;51.158;0.880;2023-06-10T21:35:51;17;17;12
73305;PMS5003;61530;51.158;0.880;2023-06-10T21:36:52;19;19;13
73305;PMS5003;61530;51.158;0.880;2023-06-10T21:37:52;26;25;14
73305;PMS5003;61530;51.158;0.880;2023-06-10T21:38:53;18;17;14
73305;PMS5003;61530;51.158;0.880;2023-06-10T21:39:54;26;19;14
73305;PMS5003;61530;51.158;0.880;2023-06-10T21:40:55;23;21;15
73305;PMS5003;61530;51.158;0.880;2023-06-10T21:41:55;21;21;13
73305;PMS5003;61530;51.158;0.880;2023-06-10T21:42:56;18;17;13
73305;PMS5003;61530;51.158;0.880;2023-06-10T21:43:57;19;18;12
73305;PMS5003;61530;51.158;0.880;2023-06-10T21:44:57;21;17;12
73305;PMS5003;61530;51.158;0.880;2023-06-10T21:45:58;16;15;9
73305;PMS5003;61530;51.158;0.880;2023-06-10T21:46:59;20;20;13
73305;PMS5003;61530;51.158;0.880;2023-06-10T21:47:59;18;18;12
73305;PMS5003;61530;51.158;0.880;2023-06-10T21:49:01;23;21;15
73305;PMS5003;61530;51.158;0.880;2023-06-10T21:50:02;20;18;14
73305;PMS5003;61530;51.158;0.880;2023-06-10T21:51:02;21;19;13
73305;PMS5003;61530;51.158;0.880;2023-06-10T21:52:03;23;20;15
73305;PMS5003;61530;51.158;0.880;2023-06-10T21:53:04;19;19;13
73305;PMS5003;61530;51.158;0.880;2023-06-10T21:54:04;23;23;13
73305;PMS5003;61530;51.158;0.880;2023-06-10T21:55:05;18;18;13
73305;PMS5003;61530;51.158;0.880;2023-06-10T21:56:06;19;19;14
73305;PMS5003;61530;51.158;0.880;2023-06-10T21:57:06;19;18;12
73305;PMS5003;61530;51.158;0.880;2023-06-10T21:58:07;21;18;12
73305;PMS5003;61530;51.158;0.880;2023-06-10T21:59:10;18;18;12
73305;PMS5003;61530;51.158;0.880;2023-06-10T22:00:13;20;19;13
73305;PMS5003;61530;51.158;0.880;2023-06-10T22:01:12;20;20;13
73305;PMS5003;61530;51.158;0.880;2023-06-10T22:02:13;17;17;13
73305;PMS5003;61530;51.158;0.880;2023-06-10T22:03:13;19;19;14
73305;PMS5003;61530;51.158;0.880;2023-06-10T22:04:14;21;20;13
73305;PMS5003;61530;51.158;0.880;2023-06-10T22:05:15;19;19;13
73305;PMS5003;61530;51.158;0.880;2023-06-10T22:06:15;23;22;14
73305;PMS5003;61530;51.158;0.880;2023-06-10T22:07:16;21;18;11
73305;PMS5003;61530;51.158;0.880;2023-06-10T22:08:17;20;19;12
73305;PMS5003;61530;51.158;0.880;2023-06-10T22:09:17;20;18;13
73305;PMS5003;61530;51.158;0.880;2023-06-10T22:10:18;21;21;13
73305;PMS5003;61530;51.158;0.880;2023-06-10T22:11:19;24;21;14
73305;PMS5003;61530;51.158;0.880;2023-06-10T22:12:20;20;17;12
73305;PMS5003;61530;51.158;0.880;2023-06-10T22:13:20;20;20;14
73305;PMS5003;61530;51.158;0.880;2023-06-10T22:14:21;20;20;13
73305;PMS5003;61530;51.158;0.880;2023-06-10T22:15:22;23;20;13
73305;PMS5003;61530;51.158;0.880;2023-06-10T22:16:22;20;18;14
73305;PMS5003;61530;51.158;0.880;2023-06-10T22:17:23;27;25;14
73305;PMS5003;61530;51.158;0.880;2023-06-10T22:18:24;20;20;13
73305;PMS5003;61530;51.158;0.880;2023-06-10T22:19:24;21;18;13
73305;PMS5003;61530;51.158;0.880;2023-06-10T22:20:26;20;19;12
73305;PMS5003;61530;51.158;0.880;2023-06-10T22:21:27;23;20;13
73305;PMS5003;61530;51.158;0.880;2023-06-10T22:22:28;18;15;12
73305;PMS5003;61530;51.158;0.880;2023-06-10T22:23:29;18;18;13
73305;PMS5003;61530;51.158;0.880;2023-06-10T22:24:29;18;17;12
73305;PMS5003;61530;51.158;0.880;2023-06-10T22:25:31;22;20;14
73305;PMS5003;61530;51.158;0.880;2023-06-10T22:26:31;20;19;13
73305;PMS5003;61530;51.158;0.880;2023-06-10T22:27:32;19;18;14
73305;PMS5003;61530;51.158;0.880;2023-06-10T22:28:33;25;21;15
73305;PMS5003;61530;51.158;0.880;2023-06-10T22:29:34;21;21;13
73305;PMS5003;61530;51.158;0.880;2023-06-10T22:30:34;21;21;13
73305;PMS5003;61530;51.158;0.880;2023-06-10T22:31:35;21;18;11
73305;PMS5003;61530;51.158;0.880;2023-06-10T22:32:36;19;19;13
73305;PMS5003;61530;51.158;0.880;2023-06-10T22:33:36;17;17;12
73305;PMS5003;61530;51.158;0.880;2023-06-10T22:34:37;21;21;12
73305;PMS5003;61530;51.158;0.880;2023-06-10T22:35:38;21;20;13
73305;PMS5003;61530;51.158;0.880;2023-06-10T22:36:38;24;23;12
73305;PMS5003;61530;51.158;0.880;2023-06-10T22:37:39;20;20;12
73305;PMS5003;61530;51.158;0.880;2023-06-10T22:38:40;22;20;12
73305;PMS5003;61530;51.158;0.880;2023-06-10T22:39:41;22;22;14
73305;PMS5003;61530;51.158;0.880;2023-06-10T22:40:42;29;25;14
73305;PMS5003;61530;51.158;0.880;2023-06-10T22:41:43;19;19;13
73305;PMS5003;61530;51.158;0.880;2023-06-10T22:42:44;18;18;13
73305;PMS5003;61530;51.158;0.880;2023-06-10T22:43:45;19;19;13
73305;PMS5003;61530;51.158;0.880;2023-06-10T22:44:45;22;22;12
73305;PMS5003;61530;51.158;0.880;2023-06-10T22:45:46;28;23;13
73305;PMS5003;61530;51.158;0.880;2023-06-10T22:46:47;24;22;13
73305;PMS5003;61530;51.158;0.880;2023-06-10T22:47:47;21;19;13